BBC Orinoco — V2DM2 — position and weather

sailwx.info

Track history (hours):
 
Tides and Currents Weather Stations Pressure Air Temp Water Temp Dewpoint Dewpoint Depression Visibility Wind Speed Wind Dir Waves Ship Positions

BBC Orinoco

Last reported at 2018-Apr-20 12:47 UTC. Time now 2018-Apr-25 02:58 UTC.
Position N 29°20' W 094°40'.

Length 143 m; draft 6.5 m.

Type: Ship. MMSI: 305255000.

Date/timePositionNaut miles runAvg speedWind from/ knotsBaromVisibWave heightAir tempDewpointWater temp
2018-Apr-20 12:47N 29°20' W 094°40'3 9.8
2018-Apr-20 12:27N 29°21' W 094°44'4 8.9
2018-Apr-20 11:59N 29°23' W 094°48'510.8
2018-Apr-20 11:30N 29°27' W 094°51'612.0
2018-Apr-20 11:00N 29°33' W 094°54'611.7
2018-Apr-20 10:30N 29°38' W 094°58'510.6
2018-Apr-20 10:00N 29°42' W 095°01'4 7.5
2018-Apr-20 09:30N 29°45' W 095°04'3 6.2
2018-Apr-20 09:00N 29°44' W 095°07'4 7.1
2018-Apr-20 08:30N 29°45' W 095°11'  
2018-Apr-18 03:56N 29°43' W 095°15'0 0.0
2018-Apr-18 03:23N 29°43' W 095°15'0 0.0
2018-Apr-18 02:47N 29°43' W 095°15'0 0.0
2018-Apr-18 02:20N 29°43' W 095°15'0 0.0
2018-Apr-18 01:56N 29°43' W 095°15'0 0.0
2018-Apr-18 01:28N 29°43' W 095°15'0 0.0
2018-Apr-18 00:58N 29°43' W 095°15'0 0.0
2018-Apr-17 14:05N 29°43' W 095°15'0 0.0
2018-Apr-17 13:47N 29°43' W 095°15'0 0.0
2018-Apr-17 13:29N 29°43' W 095°15'0 0.0
2018-Apr-17 12:56N 29°43' W 095°15'0 0.0
2018-Apr-17 12:29N 29°43' W 095°15'0 0.0
2018-Apr-17 11:53N 29°43' W 095°15'0 0.0
2018-Apr-17 11:28N 29°43' W 095°15'0 0.0
2018-Apr-17 10:31N 29°43' W 095°15'0 0.0
2018-Apr-17 10:28N 29°43' W 095°15'0 0.0
2018-Apr-17 09:58N 29°43' W 095°15'0 0.0
2018-Apr-17 09:21N 29°43' W 095°15'0 0.0
2018-Apr-17 08:27N 29°43' W 095°15'0 0.0
2018-Apr-17 07:57N 29°43' W 095°15'0 0.0
2018-Apr-17 07:18N 29°43' W 095°15'0 0.0
2018-Apr-17 06:56N 29°43' W 095°15'0 0.0
2018-Apr-17 06:14N 29°43' W 095°15'0 0.0
2018-Apr-17 05:53N 29°43' W 095°15'0 0.0
2018-Apr-17 05:26N 29°43' W 095°15'0 0.0
2018-Apr-17 04:59N 29°43' W 095°15'0 0.0
2018-Apr-17 04:28N 29°43' W 095°15'0 0.0
2018-Apr-17 03:59N 29°43' W 095°15'3 4.4
2018-Apr-17 03:13N 29°45' W 095°11'1 6.7
2018-Apr-17 03:00N 29°45' W 095°10'3 6.3
2018-Apr-17 02:30N 29°45' W 095°06'3 6.4
2018-Apr-17 02:00N 29°44' W 095°03'4 8.6
2018-Apr-17 01:31N 29°41' W 094°59'611.6
2018-Apr-17 01:01N 29°36' W 094°57'713.5
2018-Apr-17 00:30N 29°30' W 094°52'714.0
2018-Apr-17 00:00N 29°24' W 094°49'13 0.8
2018-Apr-16 08:05N 29°20' W 094°35'0 0.0
2018-Apr-16 07:56N 29°20' W 094°35'0 0.0
2018-Apr-16 07:26N 29°20' W 094°35'0 0.0
2018-Apr-16 06:26N 29°20' W 094°35'0 0.1
2018-Apr-16 05:55N 29°20' W 094°35'0 0.0
2018-Apr-15 09:17N 29°20' W 094°35'0 0.0
2018-Apr-15 06:42N 29°20' W 094°35'0 0.0
2018-Apr-15 06:12N 29°20' W 094°35'0 0.0
2018-Apr-15 06:00N 29°20' W 094°35'0 0.0
2018-Apr-15 05:09N 29°20' W 094°35'0 0.0
2018-Apr-15 04:57N 29°20' W 094°35'0 0.0
2018-Apr-14 12:38N 29°20' W 094°35'0 0.0
2018-Apr-14 11:16N 29°20' W 094°35'0 0.0
2018-Apr-14 10:58N 29°20' W 094°35'0 0.1
2018-Apr-14 07:22N 29°20' W 094°35'1 2.6
2018-Apr-14 07:00N 29°20' W 094°36'510.0
2018-Apr-14 06:30N 29°21' W 094°42'5 9.6
2018-Apr-14 05:59N 29°19' W 094°47'13 0.5
2018-Apr-13 03:59N 29°19' W 094°32'0 0.0
2018-Apr-13 03:22N 29°19' W 094°32'0 0.0
2018-Apr-13 01:52N 29°19' W 094°32'3 7.6
2018-Apr-13 01:29N 29°17' W 094°34'612.8
2018-Apr-13 01:00N 29°13' W 094°29'713.0
2018-Apr-13 00:29N 29°09' W 094°23'612.8
2018-Apr-13 00:00N 29°05' W 094°17'612.5
2018-Apr-12 23:30N 29°02' W 094°11'713.0
2018-Apr-12 23:00N 28°58' W 094°05'712.8
2018-Apr-12 22:28N 28°54' W 093°58'612.8
2018-Apr-12 21:58N 28°51' W 093°52'  
Track history (hours):
 
Tides and Currents Weather Stations Pressure Air Temp Water Temp Dewpoint Dewpoint Depression Visibility Wind Speed Wind Dir Waves Ship Positions

BBC Orinoco

Last reported at 2018-Apr-20 12:47 UTC. Time now 2018-Apr-25 02:58 UTC.
Position N 29°20' W 094°40'.

Length 143 m; draft 6.5 m.

Type: Ship. MMSI: 305255000.

Date/timePositionNaut miles runAvg speedWind from/ knotsBaromVisibWave heightAir tempDewpointWater temp
2018-Apr-20 12:47N 29°20' W 094°40'3 9.8
2018-Apr-20 12:27N 29°21' W 094°44'4 8.9
2018-Apr-20 11:59N 29°23' W 094°48'510.8
2018-Apr-20 11:30N 29°27' W 094°51'612.0
2018-Apr-20 11:00N 29°33' W 094°54'611.7
2018-Apr-20 10:30N 29°38' W 094°58'510.6
2018-Apr-20 10:00N 29°42' W 095°01'4 7.5
2018-Apr-20 09:30N 29°45' W 095°04'3 6.2
2018-Apr-20 09:00N 29°44' W 095°07'4 7.1
2018-Apr-20 08:30N 29°45' W 095°11'  
2018-Apr-18 03:56N 29°43' W 095°15'0 0.0
2018-Apr-18 03:23N 29°43' W 095°15'0 0.0
2018-Apr-18 02:47N 29°43' W 095°15'0 0.0
2018-Apr-18 02:20N 29°43' W 095°15'0 0.0
2018-Apr-18 01:56N 29°43' W 095°15'0 0.0
2018-Apr-18 01:28N 29°43' W 095°15'0 0.0
2018-Apr-18 00:58N 29°43' W 095°15'0 0.0
2018-Apr-17 14:05N 29°43' W 095°15'0 0.0
2018-Apr-17 13:47N 29°43' W 095°15'0 0.0
2018-Apr-17 13:29N 29°43' W 095°15'0 0.0
2018-Apr-17 12:56N 29°43' W 095°15'0 0.0
2018-Apr-17 12:29N 29°43' W 095°15'0 0.0
2018-Apr-17 11:53N 29°43' W 095°15'0 0.0
2018-Apr-17 11:28N 29°43' W 095°15'0 0.0
2018-Apr-17 10:31N 29°43' W 095°15'0 0.0
2018-Apr-17 10:28N 29°43' W 095°15'0 0.0
2018-Apr-17 09:58N 29°43' W 095°15'0 0.0
2018-Apr-17 09:21N 29°43' W 095°15'0 0.0
2018-Apr-17 08:27N 29°43' W 095°15'0 0.0
2018-Apr-17 07:57N 29°43' W 095°15'0 0.0
2018-Apr-17 07:18N 29°43' W 095°15'0 0.0
2018-Apr-17 06:56N 29°43' W 095°15'0 0.0
2018-Apr-17 06:14N 29°43' W 095°15'0 0.0
2018-Apr-17 05:53N 29°43' W 095°15'0 0.0
2018-Apr-17 05:26N 29°43' W 095°15'0 0.0
2018-Apr-17 04:59N 29°43' W 095°15'0 0.0
2018-Apr-17 04:28N 29°43' W 095°15'0 0.0
2018-Apr-17 03:59N 29°43' W 095°15'3 4.4
2018-Apr-17 03:13N 29°45' W 095°11'1 6.7
2018-Apr-17 03:00N 29°45' W 095°10'3 6.3
2018-Apr-17 02:30N 29°45' W 095°06'3 6.4
2018-Apr-17 02:00N 29°44' W 095°03'4 8.6
2018-Apr-17 01:31N 29°41' W 094°59'611.6
2018-Apr-17 01:01N 29°36' W 094°57'713.5
2018-Apr-17 00:30N 29°30' W 094°52'714.0
2018-Apr-17 00:00N 29°24' W 094°49'13 0.8
2018-Apr-16 08:05N 29°20' W 094°35'0 0.0
2018-Apr-16 07:56N 29°20' W 094°35'0 0.0
2018-Apr-16 07:26N 29°20' W 094°35'0 0.0
2018-Apr-16 06:26N 29°20' W 094°35'0 0.1
2018-Apr-16 05:55N 29°20' W 094°35'0 0.0
2018-Apr-15 09:17N 29°20' W 094°35'0 0.0
2018-Apr-15 06:42N 29°20' W 094°35'0 0.0
2018-Apr-15 06:12N 29°20' W 094°35'0 0.0
2018-Apr-15 06:00N 29°20' W 094°35'0 0.0
2018-Apr-15 05:09N 29°20' W 094°35'0 0.0
2018-Apr-15 04:57N 29°20' W 094°35'0 0.0
2018-Apr-14 12:38N 29°20' W 094°35'0 0.0
2018-Apr-14 11:16N 29°20' W 094°35'0 0.0
2018-Apr-14 10:58N 29°20' W 094°35'0 0.1
2018-Apr-14 07:22N 29°20' W 094°35'1 2.6
2018-Apr-14 07:00N 29°20' W 094°36'510.0
2018-Apr-14 06:30N 29°21' W 094°42'5 9.6
2018-Apr-14 05:59N 29°19' W 094°47'13 0.5
2018-Apr-13 03:59N 29°19' W 094°32'0 0.0
2018-Apr-13 03:22N 29°19' W 094°32'0 0.0
2018-Apr-13 01:52N 29°19' W 094°32'3 7.6
2018-Apr-13 01:29N 29°17' W 094°34'612.8
2018-Apr-13 01:00N 29°13' W 094°29'713.0
2018-Apr-13 00:29N 29°09' W 094°23'612.8
2018-Apr-13 00:00N 29°05' W 094°17'612.5
2018-Apr-12 23:30N 29°02' W 094°11'713.0
2018-Apr-12 23:00N 28°58' W 094°05'712.8
2018-Apr-12 22:28N 28°54' W 093°58'612.8
2018-Apr-12 21:58N 28°51' W 093°52'  

Dump ship's entire track history